sensor_id;sensor_type;location;lat;lon;timestamp;temperature;humidity
46378;DHT22;32083;47.360;9.650;2024-01-15T00:00:51;0.00;99.90
46378;DHT22;32083;47.360;9.650;2024-01-15T00:03:20;0.00;99.90
46378;DHT22;32083;47.360;9.650;2024-01-15T00:05:51;0.00;99.90
46378;DHT22;32083;47.360;9.650;2024-01-15T00:08:22;0.00;99.90
46378;DHT22;32083;47.360;9.650;2024-01-15T00:10:50;0.00;99.90
46378;DHT22;32083;47.360;9.650;2024-01-15T00:13:16;0.00;99.90
46378;DHT22;32083;47.360;9.650;2024-01-15T00:15:42;0.00;99.90
46378;DHT22;32083;47.360;9.650;2024-01-15T00:18:09;0.10;99.90
46378;DHT22;32083;47.360;9.650;2024-01-15T00:20:35;0.10;99.90
46378;DHT22;32083;47.360;9.650;2024-01-15T00:23:01;0.10;99.90
46378;DHT22;32083;47.360;9.650;2024-01-15T00:25:29;0.10;99.90
46378;DHT22;32083;47.360;9.650;2024-01-15T00:27:58;0.10;99.90
46378;DHT22;32083;47.360;9.650;2024-01-15T00:30:24;0.10;99.90
46378;DHT22;32083;47.360;9.650;2024-01-15T00:32:52;0.10;99.90
46378;DHT22;32083;47.360;9.650;2024-01-15T00:35:18;0.20;99.90
46378;DHT22;32083;47.360;9.650;2024-01-15T00:37:46;0.20;99.90
46378;DHT22;32083;47.360;9.650;2024-01-15T00:40:13;0.10;99.90
46378;DHT22;32083;47.360;9.650;2024-01-15T00:42:39;0.20;99.90
46378;DHT22;32083;47.360;9.650;2024-01-15T00:45:08;0.20;99.90
46378;DHT22;32083;47.360;9.650;2024-01-15T00:47:37;0.10;99.90
46378;DHT22;32083;47.360;9.650;2024-01-15T00:50:03;0.10;99.90
46378;DHT22;32083;47.360;9.650;2024-01-15T00:52:29;0.10;99.90
46378;DHT22;32083;47.360;9.650;2024-01-15T00:54:56;0.10;99.90
46378;DHT22;32083;47.360;9.650;2024-01-15T00:57:22;0.10;99.90
46378;DHT22;32083;47.360;9.650;2024-01-15T00:59:47;0.20;99.90
46378;DHT22;32083;47.360;9.650;2024-01-15T01:02:16;0.20;99.90
46378;DHT22;32083;47.360;9.650;2024-01-15T01:04:42;0.20;99.90
46378;DHT22;32083;47.360;9.650;2024-01-15T01:07:17;0.20;99.90
46378;DHT22;32083;47.360;9.650;2024-01-15T01:09:45;0.20;99.90
46378;DHT22;32083;47.360;9.650;2024-01-15T01:12:17;0.20;99.90
46378;DHT22;32083;47.360;9.650;2024-01-15T01:14:42;0.20;99.90
46378;DHT22;32083;47.360;9.650;2024-01-15T01:17:08;0.20;99.90
46378;DHT22;32083;47.360;9.650;2024-01-15T01:19:34;0.30;99.90
46378;DHT22;32083;47.360;9.650;2024-01-15T01:22:00;0.30;99.90
46378;DHT22;32083;47.360;9.650;2024-01-15T01:24:26;0.30;99.90
46378;DHT22;32083;47.360;9.650;2024-01-15T01:26:52;0.40;99.90
46378;DHT22;32083;47.360;9.650;2024-01-15T01:29:18;0.40;99.90
46378;DHT22;32083;47.360;9.650;2024-01-15T01:31:49;0.40;99.90
46378;DHT22;32083;47.360;9.650;2024-01-15T01:34:15;0.40;99.90
46378;DHT22;32083;47.360;9.650;2024-01-15T01:36:44;0.40;99.90
46378;DHT22;32083;47.360;9.650;2024-01-15T01:39:12;0.40;99.90
46378;DHT22;32083;47.360;9.650;2024-01-15T01:41:38;0.40;99.90
46378;DHT22;32083;47.360;9.650;2024-01-15T01:44:05;0.40;99.90
46378;DHT22;32083;47.360;9.650;2024-01-15T01:46:36;0.30;99.90
46378;DHT22;32083;47.360;9.650;2024-01-15T01:49:07;0.30;99.90
46378;DHT22;32083;47.360;9.650;2024-01-15T01:51:35;0.40;99.90
46378;DHT22;32083;47.360;9.650;2024-01-15T01:54:03;0.40;99.90
46378;DHT22;32083;47.360;9.650;2024-01-15T01:56:30;0.40;99.90
46378;DHT22;32083;47.360;9.650;2024-01-15T01:58:56;0.40;99.90
46378;DHT22;32083;47.360;9.650;2024-01-15T02:01:22;0.50;99.90
46378;DHT22;32083;47.360;9.650;2024-01-15T02:03:51;0.50;99.90
46378;DHT22;32083;47.360;9.650;2024-01-15T02:06:18;0.50;99.90
46378;DHT22;32083;47.360;9.650;2024-01-15T02:08:47;0.50;99.90
46378;DHT22;32083;47.360;9.650;2024-01-15T02:11:12;0.50;99.90
46378;DHT22;32083;47.360;9.650;2024-01-15T02:13:41;0.40;99.90
46378;DHT22;32083;47.360;9.650;2024-01-15T02:16:09;0.30;99.90
46378;DHT22;32083;47.360;9.650;2024-01-15T02:18:47;0.30;99.90
46378;DHT22;32083;47.360;9.650;2024-01-15T02:21:16;0.30;99.90
46378;DHT22;32083;47.360;9.650;2024-01-15T02:23:44;0.30;99.90
46378;DHT22;32083;47.360;9.650;2024-01-15T02:26:10;0.30;99.90
46378;DHT22;32083;47.360;9.650;2024-01-15T02:28:36;0.20;99.90
46378;DHT22;32083;47.360;9.650;2024-01-15T02:31:02;0.20;99.90
46378;DHT22;32083;47.360;9.650;2024-01-15T02:33:28;0.30;99.90
46378;DHT22;32083;47.360;9.650;2024-01-15T02:35:54;0.40;99.90
46378;DHT22;32083;47.360;9.650;2024-01-15T02:38:19;0.50;99.90
46378;DHT22;32083;47.360;9.650;2024-01-15T02:40:46;0.60;99.90
46378;DHT22;32083;47.360;9.650;2024-01-15T02:43:12;0.70;99.90
46378;DHT22;32083;47.360;9.650;2024-01-15T02:45:39;1.00;99.90
46378;DHT22;32083;47.360;9.650;2024-01-15T02:48:05;1.20;99.90
46378;DHT22;32083;47.360;9.650;2024-01-15T02:50:31;1.40;99.90
46378;DHT22;32083;47.360;9.650;2024-01-15T02:52:59;1.50;99.90
46378;DHT22;32083;47.360;9.650;2024-01-15T02:55:25;1.60;99.90
46378;DHT22;32083;47.360;9.650;2024-01-15T02:57:51;1.70;99.90
46378;DHT22;32083;47.360;9.650;2024-01-15T03:00:17;1.70;99.90
46378;DHT22;32083;47.360;9.650;2024-01-15T03:02:45;1.80;99.90
46378;DHT22;32083;47.360;9.650;2024-01-15T03:05:10;1.80;99.90
46378;DHT22;32083;47.360;9.650;2024-01-15T03:07:36;1.80;99.90
46378;DHT22;32083;47.360;9.650;2024-01-15T03:10:03;1.90;99.90
46378;DHT22;32083;47.360;9.650;2024-01-15T03:12:29;1.90;99.90
46378;DHT22;32083;47.360;9.650;2024-01-15T03:14:54;2.00;99.90
46378;DHT22;32083;47.360;9.650;2024-01-15T03:17:20;2.00;99.90
46378;DHT22;32083;47.360;9.650;2024-01-15T03:19:47;2.00;99.90
46378;DHT22;32083;47.360;9.650;2024-01-15T03:22:12;2.00;99.90
46378;DHT22;32083;47.360;9.650;2024-01-15T03:24:38;2.00;99.90
46378;DHT22;32083;47.360;9.650;2024-01-15T03:27:04;2.00;99.90
46378;DHT22;32083;47.360;9.650;2024-01-15T03:29:30;2.00;99.90
46378;DHT22;32083;47.360;9.650;2024-01-15T03:31:55;2.00;99.90
46378;DHT22;32083;47.360;9.650;2024-01-15T03:34:21;1.90;99.90
46378;DHT22;32083;47.360;9.650;2024-01-15T03:36:47;1.90;99.90
46378;DHT22;32083;47.360;9.650;2024-01-15T03:39:13;1.90;99.90
46378;DHT22;32083;47.360;9.650;2024-01-15T03:41:39;1.80;99.90
46378;DHT22;32083;47.360;9.650;2024-01-15T03:44:05;1.80;99.90
46378;DHT22;32083;47.360;9.650;2024-01-15T03:46:31;1.80;99.90
46378;DHT22;32083;47.360;9.650;2024-01-15T03:48:57;1.80;99.90
46378;DHT22;32083;47.360;9.650;2024-01-15T03:51:23;1.80;99.90
46378;DHT22;32083;47.360;9.650;2024-01-15T03:53:49;1.80;99.90
46378;DHT22;32083;47.360;9.650;2024-01-15T03:56:15;1.80;99.90
46378;DHT22;32083;47.360;9.650;2024-01-15T03:58:41;1.80;99.90
46378;DHT22;32083;47.360;9.650;2024-01-15T04:01:10;1.80;99.90
46378;DHT22;32083;47.360;9.650;2024-01-15T04:03:36;1.80;99.90
46378;DHT22;32083;47.360;9.650;2024-01-15T04:06:05;1.80;99.90
46378;DHT22;32083;47.360;9.650;2024-01-15T04:08:30;1.70;99.90
46378;DHT22;32083;47.360;9.650;2024-01-15T04:10:56;1.80;99.90
46378;DHT22;32083;47.360;9.650;2024-01-15T04:13:22;1.80;99.90
46378;DHT22;32083;47.360;9.650;2024-01-15T04:15:48;1.80;99.90
46378;DHT22;32083;47.360;9.650;2024-01-15T04:18:16;1.70;99.90
46378;DHT22;32083;47.360;9.650;2024-01-15T04:20:43;1.70;99.90
46378;DHT22;32083;47.360;9.650;2024-01-15T04:23:09;1.70;99.90
46378;DHT22;32083;47.360;9.650;2024-01-15T04:25:34;1.70;99.90
46378;DHT22;32083;47.360;9.650;2024-01-15T04:28:01;1.60;99.90
46378;DHT22;32083;47.360;9.650;2024-01-15T04:30:26;1.70;99.90
46378;DHT22;32083;47.360;9.650;2024-01-15T04:32:52;1.70;99.90
46378;DHT22;32083;47.360;9.650;2024-01-15T04:35:18;1.60;99.90
46378;DHT22;32083;47.360;9.650;2024-01-15T04:37:44;1.60;99.90
46378;DHT22;32083;47.360;9.650;2024-01-15T04:40:10;1.60;99.90
46378;DHT22;32083;47.360;9.650;2024-01-15T04:42:36;1.70;99.90
46378;DHT22;32083;47.360;9.650;2024-01-15T04:45:02;1.60;99.90
46378;DHT22;32083;47.360;9.650;2024-01-15T04:47:29;1.60;99.90
46378;DHT22;32083;47.360;9.650;2024-01-15T04:49:54;1.60;99.90
46378;DHT22;32083;47.360;9.650;2024-01-15T04:52:20;1.70;99.90
46378;DHT22;32083;47.360;9.650;2024-01-15T04:54:46;1.70;99.90
46378;DHT22;32083;47.360;9.650;2024-01-15T04:57:15;1.70;99.90
46378;DHT22;32083;47.360;9.650;2024-01-15T04:59:41;1.70;99.90
46378;DHT22;32083;47.360;9.650;2024-01-15T05:02:07;1.60;99.90
46378;DHT22;32083;47.360;9.650;2024-01-15T05:04:32;1.60;99.90
46378;DHT22;32083;47.360;9.650;2024-01-15T05:06:58;1.70;99.90
46378;DHT22;32083;47.360;9.650;2024-01-15T05:09:24;1.70;99.90
46378;DHT22;32083;47.360;9.650;2024-01-15T05:11:50;1.80;99.90
46378;DHT22;32083;47.360;9.650;2024-01-15T05:14:15;1.80;99.90
46378;DHT22;32083;47.360;9.650;2024-01-15T05:16:51;1.80;99.90
46378;DHT22;32083;47.360;9.650;2024-01-15T05:19:17;1.80;99.90
46378;DHT22;32083;47.360;9.650;2024-01-15T05:21:43;1.80;99.90
46378;DHT22;32083;47.360;9.650;2024-01-15T05:24:09;1.80;99.90
46378;DHT22;32083;47.360;9.650;2024-01-15T05:26:35;1.90;99.90
46378;DHT22;32083;47.360;9.650;2024-01-15T05:29:00;1.80;99.90
46378;DHT22;32083;47.360;9.650;2024-01-15T05:31:26;1.90;99.90
46378;DHT22;32083;47.360;9.650;2024-01-15T05:33:52;1.90;99.90
46378;DHT22;32083;47.360;9.650;2024-01-15T05:36:19;1.90;99.90
46378;DHT22;32083;47.360;9.650;2024-01-15T05:38:47;1.90;99.90
46378;DHT22;32083;47.360;9.650;2024-01-15T05:41:15;1.90;99.90
46378;DHT22;32083;47.360;9.650;2024-01-15T05:43:41;1.90;99.90
46378;DHT22;32083;47.360;9.650;2024-01-15T05:46:06;1.90;99.90
46378;DHT22;32083;47.360;9.650;2024-01-15T05:48:35;1.90;99.90
46378;DHT22;32083;47.360;9.650;2024-01-15T05:51:01;1.90;99.90
46378;DHT22;32083;47.360;9.650;2024-01-15T05:53:27;1.90;99.90
46378;DHT22;32083;47.360;9.650;2024-01-15T05:55:53;1.80;99.80
46378;DHT22;32083;47.360;9.650;2024-01-15T05:58:21;1.80;99.90
46378;DHT22;32083;47.360;9.650;2024-01-15T06:00:47;1.80;99.90
46378;DHT22;32083;47.360;9.650;2024-01-15T06:03:13;1.80;99.90
46378;DHT22;32083;47.360;9.650;2024-01-15T06:05:39;1.80;99.80
46378;DHT22;32083;47.360;9.650;2024-01-15T06:08:07;1.80;99.90
46378;DHT22;32083;47.360;9.650;2024-01-15T06:10:33;1.80;99.30
46378;DHT22;32083;47.360;9.650;2024-01-15T06:12:59;1.80;99.90
46378;DHT22;32083;47.360;9.650;2024-01-15T06:15:25;1.90;99.90
46378;DHT22;32083;47.360;9.650;2024-01-15T06:17:50;1.90;99.90
46378;DHT22;32083;47.360;9.650;2024-01-15T06:20:16;1.90;99.90
46378;DHT22;32083;47.360;9.650;2024-01-15T06:22:44;1.80;99.90
46378;DHT22;32083;47.360;9.650;2024-01-15T06:25:10;1.80;99.90
46378;DHT22;32083;47.360;9.650;2024-01-15T06:27:36;1.80;99.90
46378;DHT22;32083;47.360;9.650;2024-01-15T06:30:02;1.80;99.80
46378;DHT22;32083;47.360;9.650;2024-01-15T06:32:28;1.80;99.90
46378;DHT22;32083;47.360;9.650;2024-01-15T06:34:54;1.80;99.60
46378;DHT22;32083;47.360;9.650;2024-01-15T06:37:20;1.80;99.60
46378;DHT22;32083;47.360;9.650;2024-01-15T06:39:46;1.90;99.30
46378;DHT22;32083;47.360;9.650;2024-01-15T06:42:11;1.90;99.60
46378;DHT22;32083;47.360;9.650;2024-01-15T06:44:38;1.80;99.30
46378;DHT22;32083;47.360;9.650;2024-01-15T06:47:04;1.90;99.00
46378;DHT22;32083;47.360;9.650;2024-01-15T06:49:30;1.90;99.20
46378;DHT22;32083;47.360;9.650;2024-01-15T06:51:55;1.90;99.50
46378;DHT22;32083;47.360;9.650;2024-01-15T06:54:21;1.90;99.80
46378;DHT22;32083;47.360;9.650;2024-01-15T06:56:49;1.90;99.60
46378;DHT22;32083;47.360;9.650;2024-01-15T06:59:15;1.90;99.30
46378;DHT22;32083;47.360;9.650;2024-01-15T07:01:40;1.90;99.50
46378;DHT22;32083;47.360;9.650;2024-01-15T07:04:06;1.90;99.90
46378;DHT22;32083;47.360;9.650;2024-01-15T07:06:33;1.90;99.60
46378;DHT22;32083;47.360;9.650;2024-01-15T07:09:00;1.90;99.30
46378;DHT22;32083;47.360;9.650;2024-01-15T07:11:26;1.90;99.20
46378;DHT22;32083;47.360;9.650;2024-01-15T07:13:51;1.90;98.80
46378;DHT22;32083;47.360;9.650;2024-01-15T07:16:17;1.80;99.10
46378;DHT22;32083;47.360;9.650;2024-01-15T07:18:43;1.80;99.60
46378;DHT22;32083;47.360;9.650;2024-01-15T07:21:09;1.80;99.60
46378;DHT22;32083;47.360;9.650;2024-01-15T07:23:35;1.80;99.90
46378;DHT22;32083;47.360;9.650;2024-01-15T07:26:01;1.70;99.60
46378;DHT22;32083;47.360;9.650;2024-01-15T07:28:31;1.80;99.90
46378;DHT22;32083;47.360;9.650;2024-01-15T07:30:57;1.80;99.90
46378;DHT22;32083;47.360;9.650;2024-01-15T07:33:23;1.80;99.90
46378;DHT22;32083;47.360;9.650;2024-01-15T07:35:49;1.80;99.70
46378;DHT22;32083;47.360;9.650;2024-01-15T07:38:15;1.80;99.50
46378;DHT22;32083;47.360;9.650;2024-01-15T07:40:41;1.80;99.50
46378;DHT22;32083;47.360;9.650;2024-01-15T07:43:07;1.80;99.40
46378;DHT22;32083;47.360;9.650;2024-01-15T07:45:32;1.90;99.70
46378;DHT22;32083;47.360;9.650;2024-01-15T07:47:58;1.90;99.90
46378;DHT22;32083;47.360;9.650;2024-01-15T07:50:24;1.90;99.90
46378;DHT22;32083;47.360;9.650;2024-01-15T07:52:49;1.90;99.90
46378;DHT22;32083;47.360;9.650;2024-01-15T07:55:15;1.90;99.90
46378;DHT22;32083;47.360;9.650;2024-01-15T07:57:41;1.80;99.70
46378;DHT22;32083;47.360;9.650;2024-01-15T08:00:07;1.70;99.90
46378;DHT22;32083;47.360;9.650;2024-01-15T08:02:34;1.80;99.80
46378;DHT22;32083;47.360;9.650;2024-01-15T08:05:00;1.70;99.90
46378;DHT22;32083;47.360;9.650;2024-01-15T08:07:26;1.80;99.70
46378;DHT22;32083;47.360;9.650;2024-01-15T08:09:52;1.80;99.90
46378;DHT22;32083;47.360;9.650;2024-01-15T08:12:18;1.80;99.90
46378;DHT22;32083;47.360;9.650;2024-01-15T08:14:44;1.80;99.90
46378;DHT22;32083;47.360;9.650;2024-01-15T08:17:10;1.90;99.90
46378;DHT22;32083;47.360;9.650;2024-01-15T08:19:36;1.90;99.90
46378;DHT22;32083;47.360;9.650;2024-01-15T08:22:02;1.90;99.90
46378;DHT22;32083;47.360;9.650;2024-01-15T08:24:28;1.90;99.90
46378;DHT22;32083;47.360;9.650;2024-01-15T08:26:54;2.00;99.90
46378;DHT22;32083;47.360;9.650;2024-01-15T08:29:21;1.80;99.90
46378;DHT22;32083;47.360;9.650;2024-01-15T08:31:47;1.70;99.90
46378;DHT22;32083;47.360;9.650;2024-01-15T08:34:13;1.70;99.90
46378;DHT22;32083;47.360;9.650;2024-01-15T08:36:39;1.70;99.90
46378;DHT22;32083;47.360;9.650;2024-01-15T08:39:06;1.60;99.90
46378;DHT22;32083;47.360;9.650;2024-01-15T08:41:33;1.60;99.90
46378;DHT22;32083;47.360;9.650;2024-01-15T08:43:58;1.60;99.90
46378;DHT22;32083;47.360;9.650;2024-01-15T08:46:24;1.60;99.90
46378;DHT22;32083;47.360;9.650;2024-01-15T08:48:50;1.60;99.90
46378;DHT22;32083;47.360;9.650;2024-01-15T08:51:16;1.50;99.90
46378;DHT22;32083;47.360;9.650;2024-01-15T08:53:44;1.50;99.90
46378;DHT22;32083;47.360;9.650;2024-01-15T08:56:09;1.40;99.90
46378;DHT22;32083;47.360;9.650;2024-01-15T08:58:36;1.50;99.90
46378;DHT22;32083;47.360;9.650;2024-01-15T09:01:02;1.40;99.90
46378;DHT22;32083;47.360;9.650;2024-01-15T09:03:27;1.50;99.90
46378;DHT22;32083;47.360;9.650;2024-01-15T09:05:53;1.50;99.90
46378;DHT22;32083;47.360;9.650;2024-01-15T09:08:20;1.50;99.90
46378;DHT22;32083;47.360;9.650;2024-01-15T09:10:45;1.50;99.90
46378;DHT22;32083;47.360;9.650;2024-01-15T09:13:11;1.50;99.90
46378;DHT22;32083;47.360;9.650;2024-01-15T09:15:37;1.40;99.90
46378;DHT22;32083;47.360;9.650;2024-01-15T09:18:03;1.50;99.90
46378;DHT22;32083;47.360;9.650;2024-01-15T09:20:30;1.60;99.90
46378;DHT22;32083;47.360;9.650;2024-01-15T09:22:56;1.50;99.90
46378;DHT22;32083;47.360;9.650;2024-01-15T09:25:22;1.50;99.90
46378;DHT22;32083;47.360;9.650;2024-01-15T09:27:47;1.50;99.90
46378;DHT22;32083;47.360;9.650;2024-01-15T09:30:14;1.50;99.90
46378;DHT22;32083;47.360;9.650;2024-01-15T09:32:39;1.50;99.90
46378;DHT22;32083;47.360;9.650;2024-01-15T09:35:05;1.50;99.90
46378;DHT22;32083;47.360;9.650;2024-01-15T09:37:31;1.50;99.90
46378;DHT22;32083;47.360;9.650;2024-01-15T09:39:57;1.50;99.90
46378;DHT22;32083;47.360;9.650;2024-01-15T09:42:25;1.50;99.90
46378;DHT22;32083;47.360;9.650;2024-01-15T09:44:51;1.60;99.90
46378;DHT22;32083;47.360;9.650;2024-01-15T09:47:18;1.70;99.90
46378;DHT22;32083;47.360;9.650;2024-01-15T09:49:44;1.70;99.90
46378;DHT22;32083;47.360;9.650;2024-01-15T09:52:11;1.80;99.90
46378;DHT22;32083;47.360;9.650;2024-01-15T09:54:38;1.80;99.90
46378;DHT22;32083;47.360;9.650;2024-01-15T09:57:06;1.90;99.90
46378;DHT22;32083;47.360;9.650;2024-01-15T09:59:33;1.90;99.90
46378;DHT22;32083;47.360;9.650;2024-01-15T10:02:00;1.90;99.90
46378;DHT22;32083;47.360;9.650;2024-01-15T10:04:27;1.90;99.90
46378;DHT22;32083;47.360;9.650;2024-01-15T10:06:53;1.90;99.80
46378;DHT22;32083;47.360;9.650;2024-01-15T10:09:19;2.00;99.90
46378;DHT22;32083;47.360;9.650;2024-01-15T10:11:47;1.90;99.00
46378;DHT22;32083;47.360;9.650;2024-01-15T10:14:13;2.00;99.00
46378;DHT22;32083;47.360;9.650;2024-01-15T10:16:42;2.00;99.30
46378;DHT22;32083;47.360;9.650;2024-01-15T10:19:09;2.00;98.80
46378;DHT22;32083;47.360;9.650;2024-01-15T10:21:35;2.00;97.90
46378;DHT22;32083;47.360;9.650;2024-01-15T10:24:02;2.00;97.30
46378;DHT22;32083;47.360;9.650;2024-01-15T10:26:32;2.00;97.90
46378;DHT22;32083;47.360;9.650;2024-01-15T10:28:58;2.00;98.60
46378;DHT22;32083;47.360;9.650;2024-01-15T10:31:26;2.00;99.40
46378;DHT22;32083;47.360;9.650;2024-01-15T10:33:51;2.00;99.70
46378;DHT22;32083;47.360;9.650;2024-01-15T10:36:17;2.00;99.40
46378;DHT22;32083;47.360;9.650;2024-01-15T10:38:44;2.10;99.50
46378;DHT22;32083;47.360;9.650;2024-01-15T10:41:10;2.00;99.20
46378;DHT22;32083;47.360;9.650;2024-01-15T10:43:36;2.00;99.70
46378;DHT22;32083;47.360;9.650;2024-01-15T10:46:02;2.00;99.60
46378;DHT22;32083;47.360;9.650;2024-01-15T10:48:29;2.00;99.70
46378;DHT22;32083;47.360;9.650;2024-01-15T10:50:57;2.00;99.30
46378;DHT22;32083;47.360;9.650;2024-01-15T10:53:24;2.00;98.00
46378;DHT22;32083;47.360;9.650;2024-01-15T10:55:54;2.10;97.30
46378;DHT22;32083;47.360;9.650;2024-01-15T10:58:22;2.10;97.10
46378;DHT22;32083;47.360;9.650;2024-01-15T11:00:50;2.10;96.30
46378;DHT22;32083;47.360;9.650;2024-01-15T11:03:16;2.20;96.30
46378;DHT22;32083;47.360;9.650;2024-01-15T11:05:44;2.20;96.50
46378;DHT22;32083;47.360;9.650;2024-01-15T11:08:10;2.20;96.20
46378;DHT22;32083;47.360;9.650;2024-01-15T11:10:52;2.20;97.10
46378;DHT22;32083;47.360;9.650;2024-01-15T11:13:39;2.20;97.60
46378;DHT22;32083;47.360;9.650;2024-01-15T11:16:11;2.30;97.90
46378;DHT22;32083;47.360;9.650;2024-01-15T11:18:42;2.30;96.70
46378;DHT22;32083;47.360;9.650;2024-01-15T11:24:01;2.20;95.80
46378;DHT22;32083;47.360;9.650;2024-01-15T11:26:43;2.20;96.00
46378;DHT22;32083;47.360;9.650;2024-01-15T11:29:29;2.20;96.60
46378;DHT22;32083;47.360;9.650;2024-01-15T11:34:21;2.30;95.80
46378;DHT22;32083;47.360;9.650;2024-01-15T11:37:07;2.30;95.90
46378;DHT22;32083;47.360;9.650;2024-01-15T11:42:00;2.30;96.60
46378;DHT22;32083;47.360;9.650;2024-01-15T11:44:27;2.30;97.40
46378;DHT22;32083;47.360;9.650;2024-01-15T11:52:19;2.40;97.10
46378;DHT22;32083;47.360;9.650;2024-01-15T11:55:06;2.30;95.00
46378;DHT22;32083;47.360;9.650;2024-01-15T11:57:51;2.40;94.70
46378;DHT22;32083;47.360;9.650;2024-01-15T12:00:17;2.40;95.10
46378;DHT22;32083;47.360;9.650;2024-01-15T12:02:44;2.40;95.00
46378;DHT22;32083;47.360;9.650;2024-01-15T12:05:12;2.40;94.50
46378;DHT22;32083;47.360;9.650;2024-01-15T12:07:42;2.40;95.10
46378;DHT22;32083;47.360;9.650;2024-01-15T12:10:11;2.40;94.90
46378;DHT22;32083;47.360;9.650;2024-01-15T12:13:00;2.40;95.30
46378;DHT22;32083;47.360;9.650;2024-01-15T12:15:29;2.40;95.00
46378;DHT22;32083;47.360;9.650;2024-01-15T12:17:59;2.40;95.30
46378;DHT22;32083;47.360;9.650;2024-01-15T12:20:30;2.50;94.90
46378;DHT22;32083;47.360;9.650;2024-01-15T12:22:56;2.40;95.40
46378;DHT22;32083;47.360;9.650;2024-01-15T12:25:26;2.50;94.90
46378;DHT22;32083;47.360;9.650;2024-01-15T12:27:54;2.50;95.40
46378;DHT22;32083;47.360;9.650;2024-01-15T12:30:20;2.50;96.10
46378;DHT22;32083;47.360;9.650;2024-01-15T12:32:47;2.50;96.60
46378;DHT22;32083;47.360;9.650;2024-01-15T12:35:13;2.50;96.50
46378;DHT22;32083;47.360;9.650;2024-01-15T12:37:40;2.50;96.70
46378;DHT22;32083;47.360;9.650;2024-01-15T12:40:07;2.50;97.10
46378;DHT22;32083;47.360;9.650;2024-01-15T12:42:35;2.50;97.70
46378;DHT22;32083;47.360;9.650;2024-01-15T12:45:02;2.50;97.80
46378;DHT22;32083;47.360;9.650;2024-01-15T12:47:30;2.50;98.60
46378;DHT22;32083;47.360;9.650;2024-01-15T12:50:00;2.50;98.90
46378;DHT22;32083;47.360;9.650;2024-01-15T12:52:29;2.50;98.90
46378;DHT22;32083;47.360;9.650;2024-01-15T12:54:55;2.40;99.70
46378;DHT22;32083;47.360;9.650;2024-01-15T12:57:21;2.40;99.90
46378;DHT22;32083;47.360;9.650;2024-01-15T12:59:48;2.40;99.90
46378;DHT22;32083;47.360;9.650;2024-01-15T13:02:15;2.40;99.90
46378;DHT22;32083;47.360;9.650;2024-01-15T13:04:42;2.40;99.90
46378;DHT22;32083;47.360;9.650;2024-01-15T13:07:08;2.40;99.90
46378;DHT22;32083;47.360;9.650;2024-01-15T13:09:35;2.40;99.90
46378;DHT22;32083;47.360;9.650;2024-01-15T13:12:01;2.40;99.90
46378;DHT22;32083;47.360;9.650;2024-01-15T13:14:28;2.40;99.90
46378;DHT22;32083;47.360;9.650;2024-01-15T13:16:54;2.40;99.90
46378;DHT22;32083;47.360;9.650;2024-01-15T13:19:23;2.40;99.90
46378;DHT22;32083;47.360;9.650;2024-01-15T13:21:53;2.40;99.90
46378;DHT22;32083;47.360;9.650;2024-01-15T13:24:19;2.40;99.90
46378;DHT22;32083;47.360;9.650;2024-01-15T13:26:45;2.40;99.90
46378;DHT22;32083;47.360;9.650;2024-01-15T13:29:14;2.40;99.90
46378;DHT22;32083;47.360;9.650;2024-01-15T13:31:52;2.40;99.90
46378;DHT22;32083;47.360;9.650;2024-01-15T13:34:19;2.40;99.90
46378;DHT22;32083;47.360;9.650;2024-01-15T13:36:44;2.50;99.90
46378;DHT22;32083;47.360;9.650;2024-01-15T13:39:11;2.50;99.50
46378;DHT22;32083;47.360;9.650;2024-01-15T13:41:37;2.50;99.50
46378;DHT22;32083;47.360;9.650;2024-01-15T13:44:03;2.60;99.90
46378;DHT22;32083;47.360;9.650;2024-01-15T13:46:29;2.60;99.80
46378;DHT22;32083;47.360;9.650;2024-01-15T13:48:55;2.60;99.90
46378;DHT22;32083;47.360;9.650;2024-01-15T13:51:24;2.60;99.60
46378;DHT22;32083;47.360;9.650;2024-01-15T13:53:53;2.60;98.90
46378;DHT22;32083;47.360;9.650;2024-01-15T13:56:19;2.60;97.40
46378;DHT22;32083;47.360;9.650;2024-01-15T13:58:44;2.70;97.60
46378;DHT22;32083;47.360;9.650;2024-01-15T14:01:11;2.70;97.90
46378;DHT22;32083;47.360;9.650;2024-01-15T14:03:36;2.70;97.60
46378;DHT22;32083;47.360;9.650;2024-01-15T14:06:02;2.70;97.30
46378;DHT22;32083;47.360;9.650;2024-01-15T14:08:29;2.70;96.80
46378;DHT22;32083;47.360;9.650;2024-01-15T14:10:55;2.70;97.50
46378;DHT22;32083;47.360;9.650;2024-01-15T14:13:22;2.70;97.10
46378;DHT22;32083;47.360;9.650;2024-01-15T14:15:48;2.70;97.80
46378;DHT22;32083;47.360;9.650;2024-01-15T14:18:16;2.70;97.20
46378;DHT22;32083;47.360;9.650;2024-01-15T14:20:43;2.70;96.70
46378;DHT22;32083;47.360;9.650;2024-01-15T14:23:09;2.70;97.00
46378;DHT22;32083;47.360;9.650;2024-01-15T14:25:35;2.70;97.30
46378;DHT22;32083;47.360;9.650;2024-01-15T14:28:05;2.80;97.30
46378;DHT22;32083;47.360;9.650;2024-01-15T14:30:30;2.70;96.60
46378;DHT22;32083;47.360;9.650;2024-01-15T14:32:56;2.80;97.30
46378;DHT22;32083;47.360;9.650;2024-01-15T14:35:22;2.80;96.60
46378;DHT22;32083;47.360;9.650;2024-01-15T14:37:48;2.80;97.00
46378;DHT22;32083;47.360;9.650;2024-01-15T14:40:14;2.80;96.70
46378;DHT22;32083;47.360;9.650;2024-01-15T14:42:44;2.80;96.50
46378;DHT22;32083;47.360;9.650;2024-01-15T14:45:09;2.80;96.20
46378;DHT22;32083;47.360;9.650;2024-01-15T14:47:39;2.80;95.70
46378;DHT22;32083;47.360;9.650;2024-01-15T14:50:08;2.80;95.40
46378;DHT22;32083;47.360;9.650;2024-01-15T14:52:38;2.90;95.90
46378;DHT22;32083;47.360;9.650;2024-01-15T14:55:04;2.90;96.50
46378;DHT22;32083;47.360;9.650;2024-01-15T14:57:30;2.90;96.40
46378;DHT22;32083;47.360;9.650;2024-01-15T14:59:56;2.90;95.80
46378;DHT22;32083;47.360;9.650;2024-01-15T15:02:23;2.90;95.40
46378;DHT22;32083;47.360;9.650;2024-01-15T15:04:51;2.90;95.00
46378;DHT22;32083;47.360;9.650;2024-01-15T15:07:17;2.90;95.60
46378;DHT22;32083;47.360;9.650;2024-01-15T15:09:43;2.90;95.70
46378;DHT22;32083;47.360;9.650;2024-01-15T15:12:09;2.90;95.90
46378;DHT22;32083;47.360;9.650;2024-01-15T15:14:35;2.90;96.20
46378;DHT22;32083;47.360;9.650;2024-01-15T15:17:06;2.90;95.60
46378;DHT22;32083;47.360;9.650;2024-01-15T15:19:32;2.90;95.30
46378;DHT22;32083;47.360;9.650;2024-01-15T15:22:00;2.90;95.00
46378;DHT22;32083;47.360;9.650;2024-01-15T15:24:26;2.90;95.10
46378;DHT22;32083;47.360;9.650;2024-01-15T15:26:54;2.90;95.20
46378;DHT22;32083;47.360;9.650;2024-01-15T15:29:20;2.90;95.00
46378;DHT22;32083;47.360;9.650;2024-01-15T15:31:46;3.00;95.40
46378;DHT22;32083;47.360;9.650;2024-01-15T15:34:14;3.00;95.40
46378;DHT22;32083;47.360;9.650;2024-01-15T15:36:41;3.00;94.50
46378;DHT22;32083;47.360;9.650;2024-01-15T15:39:07;3.00;94.40
46378;DHT22;32083;47.360;9.650;2024-01-15T15:41:32;3.00;95.60
46378;DHT22;32083;47.360;9.650;2024-01-15T15:43:58;2.90;95.70
46378;DHT22;32083;47.360;9.650;2024-01-15T15:46:24;2.90;95.50
46378;DHT22;32083;47.360;9.650;2024-01-15T15:48:51;2.90;95.80
46378;DHT22;32083;47.360;9.650;2024-01-15T15:51:17;2.90;95.70
46378;DHT22;32083;47.360;9.650;2024-01-15T15:53:43;2.90;95.90
46378;DHT22;32083;47.360;9.650;2024-01-15T15:56:09;2.90;96.00